Погода Кароина 2 недели

Северо-Апская Провинция, Малави

12 - 25 июля
  • 12июля
    Сегодня
    +17°
    +28°
    Ясно и безоблачно
    ВремяПогодаТемператураВлажностьДавлениеВетер, м/сВероятность осадков
    02:00Небольшая облачность+14°C81 %722 мм1.6 м/с5 %
    05:00Небольшая облачность+13°C82 %722 мм1.4 м/с5 %
    08:00Небольшая облачность+22°C67 %724 мм0.7 м/с5 %
    11:00Небольшая облачность+27°C54 %724 мм1.7 м/с5 %
    14:00Ясно и безоблачно+27°C58 %722 мм2.8 м/с5 %
    17:00Ясно и безоблачно+25°C64 %722 мм2.8 м/с5 %
    20:00Ясно и безоблачно+22°C82 %723 мм0.4 м/с5 %
    23:00Ясно и безоблачно+20°C84 %723 мм2.1 м/с5 %
  • 13июля
    Суббота
    +17°
    +29°
    Практически безоблачно
    ВремяПогодаТемператураВлажностьДавлениеВетер, м/сВероятность осадков
    02:00Ясно и безоблачно+19°C87 %722 мм1.8 м/с4 %
    05:00Практически безоблачно+18°C87 %722 мм1.6 м/с7 %
    08:00Практически безоблачно+23°C75 %724 мм0.4 м/с7 %
    11:00Ясно и безоблачно+28°C61 %724 мм2.9 м/с7 %
    14:00Практически безоблачно+29°C61 %722 мм3.2 м/с3 %
    17:00Ясно и безоблачно+26°C70 %722 мм2.5 м/с2 %
    20:00Ясно и безоблачно+23°C83 %723 мм1.5 м/с4 %
    23:00Ясно и безоблачно+21°C88 %723 мм2.0 м/с4 %
  • 14июля
    Воскресенье
    +17°
    +30°
    Ясно и безоблачно
    ВремяПогодаТемператураВлажностьДавлениеВетер, м/сВероятность осадков
    02:00Ясно и безоблачно+20°C91 %722 мм1.8 м/с12 %
    05:00Ясно и безоблачно+18°C90 %722 мм1.5 м/с9 %
    08:00Ясно и безоблачно+24°C74 %724 мм0.3 м/с2 %
    11:00Ясно и безоблачно+28°C50 %724 мм2.8 м/с4 %
    14:00Ясно и безоблачно+30°C44 %722 мм3.9 м/с5 %
    17:00Ясно и безоблачно+26°C59 %722 мм2.3 м/с5 %
    20:00Ясно и безоблачно+22°C71 %722 мм0.7 м/с5 %
    23:00Ясно и безоблачно+20°C81 %722 мм1.9 м/с5 %
  • 15июля
    Понедельник
    +18°
    +29°
    Практически безоблачно
    ВремяПогодаТемператураВлажностьДавлениеВетер, м/сВероятность осадков
    02:00Ясно и безоблачно+18°C84 %721 мм1.9 м/с5 %
    05:00Ясно и безоблачно+18°C81 %721 мм1.8 м/с5 %
    08:00Ясно и безоблачно+23°C70 %724 мм0.3 м/с5 %
    11:00Ясно и безоблачно+28°C58 %724 мм1.8 м/с5 %
    14:00Практически безоблачно+29°C61 %721 мм3.0 м/с5 %
    17:00Ясно и безоблачно+26°C65 %721 мм3.0 м/с5 %
    20:00Ясно и безоблачно+22°C82 %722 мм0.5 м/с5 %
    23:00Ясно и безоблачно+20°C87 %722 мм2.4 м/с5 %
  • 16июля
    Вторник
    +17°
    +30°
    Ясно и безоблачно
    ВремяПогодаТемператураВлажностьДавлениеВетер, м/сВероятность осадков
    02:00Ясно и безоблачно+19°C82 %721 мм1.6 м/с5 %
    05:00Ясно и безоблачно+19°C83 %721 мм1.3 м/с5 %
    08:00Ясно и безоблачно+23°C72 %723 мм0.3 м/с5 %
    11:00Ясно и безоблачно+29°C56 %723 мм1.7 м/с5 %
    14:00Ясно и безоблачно+29°C57 %721 мм3.1 м/с5 %
    17:00Ясно и безоблачно+26°C67 %721 мм2.6 м/с5 %
    20:00Ясно и безоблачно+23°C79 %722 мм1.1 м/с5 %
    23:00Ясно и безоблачно+20°C84 %721 мм2.1 м/с5 %
Мы используем cookies
Соглашаюсь